Time;durP1;ratioP1;P1;durP2;ratioP2;P2;SDS_P1;SDS_P2;PMS_P1;PMS_P2;Temp;Humidity;BMP_temperature;BMP_pressure;BME280_temperature;BME280_humidity;BME280_pressure;Samples;Min_cycle;Max_cycle;Signal;HPM_P1;HPM_P2
2021/07/27 00:01:31;;;;;;;28.65;15.82;;;;;;;17.06;100.00;101114.88;3604957;39;20024;-64
2021/07/27 00:03:57;;;;;;;29.92;15.63;;;;;;;17.10;100.00;101117.09;3602749;39;20088;-65
2021/07/27 00:06:23;;;;;;;24.15;15.27;;;;;;;17.11;100.00;101116.06;3607257;39;20055;-65
2021/07/27 00:08:51;;;;;;;25.25;15.13;;;;;;;17.08;100.00;101113.69;3606062;39;20044;-66
2021/07/27 00:11:18;;;;;;;26.15;14.60;;;;;;;17.14;100.00;101114.88;3605907;39;20034;-65
2021/07/27 00:13:44;;;;;;;28.95;15.73;;;;;;;17.11;100.00;101102.47;3603407;39;20298;-66
2021/07/27 00:16:11;;;;;;;25.50;15.30;;;;;;;17.11;100.00;101107.91;3603551;39;20058;-65
2021/07/27 00:18:37;;;;;;;28.85;15.30;;;;;;;17.09;100.00;101109.97;3603729;39;20378;-67
2021/07/27 00:21:04;;;;;;;30.92;16.80;;;;;;;17.13;100.00;101107.75;3602369;39;20038;-65
2021/07/27 00:23:32;;;;;;;34.05;18.48;;;;;;;17.12;100.00;101104.19;3603664;39;20034;-64
2021/07/27 00:26:00;;;;;;;35.80;19.95;;;;;;;17.12;100.00;101097.88;3599875;39;20388;-64
2021/07/27 00:28:26;;;;;;;43.38;22.13;;;;;;;17.17;100.00;101099.06;3601983;39;20058;-64
2021/07/27 00:30:53;;;;;;;54.47;26.20;;;;;;;17.12;100.00;101104.19;3602297;39;20565;-64
2021/07/27 00:33:20;;;;;;;53.22;27.08;;;;;;;17.10;100.00;101102.66;3602893;39;20039;-64
2021/07/27 00:35:46;;;;;;;58.45;26.70;;;;;;;17.15;100.00;101106.56;3601487;39;20044;-65
2021/07/27 00:38:18;;;;;;;52.22;27.55;;;;;;;17.13;100.00;101107.75;3602871;39;20043;-64
2021/07/27 00:40:45;;;;;;;67.68;33.22;;;;;;;17.11;100.00;101105.19;3600733;39;20118;-64
2021/07/27 00:43:15;;;;;;;66.10;31.73;;;;;;;17.14;100.00;101115.72;3603485;39;20027;-63
2021/07/27 00:45:43;;;;;;;63.45;31.77;;;;;;;17.17;100.00;101111.81;3603191;39;20031;-63
2021/07/27 00:48:10;;;;;;;67.75;33.72;;;;;;;17.14;100.00;101115.72;3601773;39;20079;-64
2021/07/27 00:50:37;;;;;;;83.95;37.13;;;;;;;17.15;100.00;101119.28;3605793;39;20042;-63
2021/07/27 00:53:05;;;;;;;98.43;40.40;;;;;;;17.08;100.00;101113.69;3602726;39;20104;-64
2021/07/27 00:55:32;;;;;;;83.32;41.08;;;;;;;17.04;100.00;101117.78;3603102;39;20039;-64
2021/07/27 00:57:59;;;;;;;88.32;41.78;;;;;;;17.06;100.00;101112.16;3598427;39;20028;-64
2021/07/27 01:00:28;;;;;;;86.03;41.25;;;;;;;17.02;100.00;101111.69;3602956;39;20061;-63
2021/07/27 01:02:55;;;;;;;85.13;39.08;;;;;;;17.03;100.00;101118.78;3602381;39;20048;-63
2021/07/27 01:05:21;;;;;;;82.95;39.47;;;;;;;17.05;100.00;101119.50;3602702;39;20046;-64
2021/07/27 01:07:49;;;;;;;101.70;44.13;;;;;;;17.10;100.00;101116.25;3606256;39;20121;-64
2021/07/27 01:10:17;;;;;;;76.90;39.05;;;;;;;17.05;100.00;101116.75;3604807;39;20034;-63
2021/07/27 01:12:45;;;;;;;88.47;39.60;;;;;;;17.02;100.00;101122.56;3601670;39;20032;-64
2021/07/27 01:15:12;;;;;;;100.23;44.73;;;;;;;17.02;100.00;101121.69;3600909;39;20044;-63
2021/07/27 01:17:39;;;;;;;92.88;41.42;;;;;;;17.01;100.00;101120.84;3598834;39;20069;-64
2021/07/27 01:20:13;;;;;;;109.72;46.60;;;;;;;17.08;100.00;101118.31;3601922;39;20035;-63
2021/07/27 01:39:21;;;;;;;102.32;45.85;;;;;;;16.95;100.00;101099.78;3602255;39;20074;-63
2021/07/27 01:44:33;;;;;;;103.97;48.45;;;;;;;16.92;100.00;101098.25;3605757;39;20030;-63
2021/07/27 01:47:00;;;;;;;113.18;49.72;;;;;;;16.92;100.00;101087.38;3602581;39;20040;-64
2021/07/27 01:49:26;;;;;;;104.47;47.38;;;;;;;16.93;100.00;101091.81;3602885;39;20276;-63
2021/07/27 01:51:53;;;;;;;117.28;49.72;;;;;;;16.91;100.00;101087.56;3601453;39;20023;-62
2021/07/27 01:54:29;;;;;;;106.72;47.97;;;;;;;16.92;100.00;101083.81;3598962;39;20035;-63
2021/07/27 01:56:56;;;;;;;102.47;46.55;;;;;;;16.87;100.00;101086.16;3604258;39;20040;-62
2021/07/27 01:59:23;;;;;;;118.80;50.80;;;;;;;16.92;100.00;101089.25;3601248;39;20119;-62
2021/07/27 02:01:49;;;;;;;113.68;51.35;;;;;;;16.82;100.00;101081.25;3605347;39;20039;-63
2021/07/27 02:04:15;;;;;;;143.15;56.47;;;;;;;16.82;100.00;101084.81;3601193;39;20113;-63
2021/07/27 02:06:42;;;;;;;142.85;57.45;;;;;;;16.79;100.00;101082.44;3600679;39;20040;-64
2021/07/27 02:09:09;;;;;;;125.05;54.47;;;;;;;16.81;100.00;101072.25;3605381;39;20271;-63
2021/07/27 02:11:42;;;;;;;114.07;49.85;;;;;;;16.80;100.00;101067.00;3601896;39;20036;-63
2021/07/27 02:14:11;;;;;;;131.98;55.13;;;;;;;16.79;100.00;101071.56;3602950;39;20044;-63
2021/07/27 02:16:37;;;;;;;;;;;;;;;16.79;100.00;101073.44;3604911;39;20397;-65
2021/07/27 02:19:04;;;;;;;135.82;56.45;;;;;;;16.79;100.00;101066.13;3600594;39;19968;-62
2021/07/27 02:21:31;;;;;;;140.52;57.42;;;;;;;16.75;100.00;101081.06;3597678;39;20122;-62
2021/07/27 02:23:58;;;;;;;132.73;54.00;;;;;;;16.78;100.00;101075.31;3601195;39;20298;-65
2021/07/27 02:26:24;;;;;;;137.05;55.83;;;;;;;16.72;100.00;101075.13;3599565;39;20024;-62
2021/07/27 02:28:52;;;;;;;130.77;53.67;;;;;;;16.75;100.00;101077.50;3601027;39;20062;-63
2021/07/27 02:31:23;;;;;;;160.77;57.67;;;;;;;16.75;100.00;101072.91;3599193;39;20045;-63
2021/07/27 02:33:50;;;;;;;130.98;52.03;;;;;;;16.70;100.00;101069.03;3598405;39;20035;-63
2021/07/27 02:36:16;;;;;;;133.93;53.45;;;;;;;16.63;100.00;101064.25;3604598;39;20388;-64
2021/07/27 02:38:42;;;;;;;118.22;51.22;;;;;;;16.64;100.00;101076.00;3601652;39;20125;-63
2021/07/27 02:41:09;;;;;;;125.57;53.25;;;;;;;16.60;100.00;101080.06;3600236;39;20100;-62
2021/07/27 02:43:35;;;;;;;117.95;49.88;;;;;;;16.54;100.00;101076.16;3602316;39;20042;-63
2021/07/27 02:46:03;;;;;;;131.38;53.65;;;;;;;16.57;100.00;101080.41;3602897;39;20044;-64
2021/07/27 02:48:30;;;;;;;122.22;53.80;;;;;;;16.53;100.00;101079.88;3601432;39;20085;-63
2021/07/27 02:51:01;;;;;;;127.65;53.40;;;;;;;16.54;100.00;101080.75;3602544;39;20032;-62
2021/07/27 02:53:29;;;;;;;126.20;53.47;;;;;;;16.43;100.00;101077.38;3601542;39;20317;-63
2021/07/27 02:55:57;;;;;;;127.05;53.70;;;;;;;16.45;100.00;101093.50;3601049;39;20036;-62
2021/07/27 02:58:31;;;;;;;123.07;51.92;;;;;;;16.40;100.00;101093.13;3601091;39;20055;-63
2021/07/27 03:00:58;;;;;;;132.50;55.65;;;;;;;16.37;100.00;101086.19;3601638;39;20206;-63
2021/07/27 03:03:25;;;;;;;127.85;54.13;;;;;;;16.34;100.00;101086.53;3605910;39;20032;-65
2021/07/27 03:05:55;;;;;;;120.70;52.88;;;;;;;16.36;100.00;101089.91;3607366;39;20062;-64
2021/07/27 03:08:23;;;;;;;93.60;45.15;;;;;;;16.36;100.00;101081.78;3604428;39;20070;-65
2021/07/27 03:10:49;;;;;;;117.80;50.05;;;;;;;16.28;100.00;101079.03;3603742;39;20035;-64
2021/07/27 03:13:16;;;;;;;116.30;49.03;;;;;;;16.24;100.00;101089.41;3603083;39;20050;-64
2021/07/27 03:15:42;;;;;;;108.85;47.22;;;;;;;16.24;100.00;101096.72;3603682;39;20049;-65
2021/07/27 03:18:09;;;;;;;112.10;48.40;;;;;;;16.23;100.00;101095.00;3601227;39;20117;-62
2021/07/27 03:20:37;;;;;;;118.18;49.35;;;;;;;16.27;100.00;101096.38;3603042;39;20032;-63
2021/07/27 03:23:04;;;;;;;111.07;48.13;;;;;;;16.27;100.00;101102.63;3601544;39;20032;-62
2021/07/27 03:25:30;;;;;;;122.03;50.38;;;;;;;16.27;100.00;101099.09;3598848;39;20052;-62
2021/07/27 03:27:56;;;;;;;125.53;48.35;;;;;;;16.25;100.00;101096.53;3603646;39;20076;-62
2021/07/27 03:30:23;;;;;;;136.00;53.38;;;;;;;16.27;100.00;101101.81;3607346;39;20093;-61
2021/07/27 03:32:51;;;;;;;137.05;52.55;;;;;;;16.24;100.00;101094.84;3602606;39;20652;-63
2021/07/27 03:35:17;;;;;;;125.00;51.85;;;;;;;16.23;100.00;101095.00;3603151;39;20037;-62
2021/07/27 03:37:45;;;;;;;118.53;48.70;;;;;;;16.25;100.00;101098.38;3604993;39;20031;-64
2021/07/27 03:40:13;;;;;;;137.05;54.08;;;;;;;16.22;100.00;101102.28;3602761;39;20062;-63
2021/07/27 03:42:39;;;;;;;144.23;56.38;;;;;;;16.22;100.00;101104.16;3604004;39;20116;-64
2021/07/27 03:45:07;;;;;;;134.52;50.47;;;;;;;16.26;100.00;101100.09;3602712;39;20035;-63
2021/07/27 03:47:33;;;;;;;147.20;54.90;;;;;;;16.23;100.00;101095.00;3601185;39;20034;-63
2021/07/27 03:50:00;;;;;;;160.45;59.10;;;;;;;16.19;100.00;101099.06;3603406;39;20047;-63
2021/07/27 03:52:26;;;;;;;147.52;55.60;;;;;;;16.23;100.00;101095.00;3602962;39;20078;-62
2021/07/27 03:54:54;;;;;;;167.00;57.75;;;;;;;16.15;100.00;101086.81;3604216;39;20042;-62
2021/07/27 03:57:20;;;;;;;144.05;52.53;;;;;;;16.14;100.00;101086.00;3599686;39;20044;-63
2021/07/27 03:59:47;;;;;;;130.75;52.63;;;;;;;16.21;100.00;101097.00;3600750;39;20056;-62
2021/07/27 04:02:13;;;;;;;149.50;56.60;;;;;;;16.15;100.00;101092.25;3600183;39;20117;-63
2021/07/27 04:04:40;;;;;;;120.95;51.72;;;;;;;16.13;100.00;101097.03;3601382;39;20036;-63
2021/07/27 04:07:06;;;;;;;162.95;56.78;;;;;;;16.15;100.00;101086.81;3605332;39;20040;-62
2021/07/27 04:09:33;;;;;;;141.05;51.88;;;;;;;16.17;100.00;101095.69;3602707;39;20036;-63
2021/07/27 04:12:01;;;;;;;138.30;55.63;;;;;;;16.19;100.00;101096.34;3601572;39;20085;-63
2021/07/27 04:14:27;;;;;;;140.77;53.15;;;;;;;16.21;100.00;101097.00;3603234;39;20280;-64
2021/07/27 04:16:54;;;;;;;160.20;59.25;;;;;;;16.26;100.00;101102.81;3600321;39;20352;-63
2021/07/27 04:19:20;;;;;;;158.98;59.83;;;;;;;16.26;100.00;101105.53;3599750;39;20397;-63
2021/07/27 04:21:47;;;;;;;176.68;61.08;;;;;;;16.27;100.00;101093.66;3600512;39;20048;-65
2021/07/27 04:24:13;;;;;;;170.43;60.20;;;;;;;16.32;100.00;101101.28;3603596;39;20372;-63
2021/07/27 04:29:28;;;;;;;164.45;61.85;;;;;;;16.29;100.00;101103.31;3589455;22;20077;-63
2021/07/27 04:31:54;;;;;;;164.30;62.47;;;;;;;16.35;100.00;101104.50;3587971;40;20029;-64
2021/07/27 04:34:21;;;;;;;166.45;62.45;;;;;;;16.33;100.00;101095.69;3586897;40;20033;-64
2021/07/27 04:36:48;;;;;;;176.98;63.92;;;;;;;16.32;100.00;101096.69;3586160;40;20033;-63
2021/07/27 04:39:14;;;;;;;149.05;58.88;;;;;;;16.40;100.00;101102.16;3588076;40;20059;-63
2021/07/27 04:41:40;;;;;;;177.68;64.93;;;;;;;16.38;100.00;101100.63;3587837;40;20040;-63
2021/07/27 04:44:07;;;;;;;182.02;65.80;;;;;;;16.35;100.00;101106.38;3587482;40;20033;-63
2021/07/27 04:46:35;;;;;;;186.85;67.70;;;;;;;16.34;100.00;101102.84;3585350;40;20039;-62
2021/07/27 04:49:02;;;;;;;181.30;67.65;;;;;;;16.37;100.00;101105.22;3587469;40;20044;-63
2021/07/27 04:51:28;;;;;;;189.68;68.28;;;;;;;16.32;100.00;101099.41;3587923;40;20025;-63
2021/07/27 04:54:01;;;;;;;175.32;67.45;;;;;;;16.27;100.00;101104.53;3586856;40;20029;-63
2021/07/27 04:56:27;;;;;;;177.70;68.30;;;;;;;16.31;100.00;101103.13;3583225;40;20040;-63
2021/07/27 04:58:54;;;;;;;184.18;66.43;;;;;;;16.26;100.00;101098.22;3589723;40;20039;-63
2021/07/27 05:01:20;;;;;;;178.10;67.10;;;;;;;16.28;100.00;101103.47;3583684;40;20060;-63
2021/07/27 05:03:48;;;;;;;182.73;65.75;;;;;;;16.33;100.00;101106.56;3588279;40;20054;-62
2021/07/27 05:06:14;;;;;;;168.60;66.20;;;;;;;16.27;100.00;101101.81;3585599;40;20047;-63
2021/07/27 05:08:42;;;;;;;161.40;63.40;;;;;;;16.34;100.00;101108.25;3587096;40;20050;-62
2021/07/27 05:11:08;;;;;;;141.10;59.67;;;;;;;16.27;100.00;101099.09;3588044;40;20125;-64
2021/07/27 05:13:36;;;;;;;153.40;60.03;;;;;;;16.33;100.00;101097.53;3587481;40;20030;-63
2021/07/27 05:16:03;;;;;;;167.88;64.20;;;;;;;16.24;100.00;101091.28;3587891;40;20029;-65
2021/07/27 05:18:30;;;;;;;158.93;62.72;;;;;;;16.28;100.00;101092.63;3586730;40;20137;-62
2021/07/27 05:20:57;;;;;;;162.82;61.53;;;;;;;16.35;100.00;101092.81;3583367;40;20105;-65
2021/07/27 05:23:24;;;;;;;160.43;62.60;;;;;;;16.41;100.00;101094.84;3584925;40;20039;-63
2021/07/27 05:25:51;;;;;;;144.32;59.65;;;;;;;16.42;100.00;101099.25;3584656;40;20029;-62
2021/07/27 05:28:18;;;;;;;158.32;62.80;;;;;;;16.49;100.00;101086.72;3587332;40;20334;-63
2021/07/27 05:30:44;;;;;;;151.70;60.40;;;;;;;16.45;100.00;101088.91;3586418;40;20025;-62
2021/07/27 05:33:11;;;;;;;138.77;61.60;;;;;;;16.51;100.00;101083.81;3587999;40;20044;-64
2021/07/27 05:35:37;;;;;;;134.68;59.15;;;;;;;16.59;100.00;101081.09;3587381;40;20037;-62
2021/07/27 05:38:05;;;;;;;136.73;59.08;;;;;;;16.51;100.00;101079.22;3587060;40;20037;-63
2021/07/27 05:40:32;;;;;;;133.55;59.13;;;;;;;16.54;100.00;101080.75;3586964;40;20035;-63
2021/07/27 05:42:58;;;;;;;120.95;57.03;;;;;;;16.60;100.00;101078.19;3587435;40;20021;-63
2021/07/27 05:45:26;;;;;;;117.95;53.67;;;;;;;16.64;100.00;101073.28;3587664;40;20390;-63
2021/07/27 05:47:52;;;;;;;118.15;56.03;;;;;;;16.72;100.00;101075.97;3588452;40;20085;-65
2021/07/27 05:50:20;;;;;;;113.55;51.38;;;;;;;16.61;100.00;101077.19;3587101;40;20126;-63
2021/07/27 05:52:46;;;;;;;116.60;55.33;;;;;;;16.67;100.00;101070.22;3587696;40;20295;-63
2021/07/27 05:55:15;;;;;;;115.00;54.78;;;;;;;16.60;100.00;101080.06;3587213;40;20377;-63
2021/07/27 05:57:42;;;;;;;100.70;51.00;;;;;;;16.57;100.00;101078.53;3586280;40;20063;-63
2021/07/27 06:00:09;;;;;;;104.82;53.55;;;;;;;16.69;100.00;101070.88;3585940;39;20058;-63
2021/07/27 06:02:35;;;;;;;105.63;52.08;;;;;;;16.79;100.00;101068.84;3587345;40;20307;-62
2021/07/27 06:05:01;;;;;;;105.72;53.10;;;;;;;16.82;100.00;101073.94;3586854;40;20036;-62
2021/07/27 06:07:29;;;;;;;105.15;52.60;;;;;;;16.94;100.00;101070.88;3587139;40;20037;-63
2021/07/27 06:09:55;;;;;;;107.15;52.72;;;;;;;16.87;100.00;101069.84;3585271;40;20055;-62
2021/07/27 06:12:23;;;;;;;88.85;48.75;;;;;;;16.79;100.00;101074.28;3582055;40;20075;-65
2021/07/27 06:14:50;;;;;;;102.03;51.50;;;;;;;16.89;100.00;101076.84;3583110;40;20037;-63
2021/07/27 06:17:16;;;;;;;100.25;50.00;;;;;;;16.82;100.00;101073.94;3586567;40;20048;-63
2021/07/27 06:19:42;;;;;;;96.97;50.28;;;;;;;16.87;100.00;101072.56;3585851;40;20029;-64
2021/07/27 06:22:09;;;;;;;91.88;49.08;;;;;;;16.88;100.00;101072.44;3585278;40;20051;-65
2021/07/27 06:24:35;;;;;;;86.90;48.88;;;;;;;16.91;100.00;101071.25;3583415;40;20035;-63
2021/07/27 06:27:02;;;;;;;86.00;47.53;;;;;;;17.08;100.00;101066.63;3587122;40;20031;-62
2021/07/27 06:29:30;;;;;;;83.68;47.13;;;;;;;17.07;100.00;101071.19;3586678;40;20048;-64
2021/07/27 06:31:57;;;;;;;83.72;46.78;;;;;;;17.27;100.00;101077.09;3586679;40;20045;-62
2021/07/27 06:34:23;;;;;;;77.85;45.83;;;;;;;17.50;100.00;101077.19;3587437;40;20047;-62
2021/07/27 06:36:49;;;;;;;79.95;44.38;;;;;;;17.41;100.00;101067.34;3588051;40;20034;-63
2021/07/27 06:39:17;;;;;;;63.67;40.83;;;;;;;17.41;100.00;101061.06;3586016;40;20044;-62
2021/07/27 06:41:43;;;;;;;68.47;42.47;;;;;;;17.62;100.00;101068.63;3585979;40;20040;-63
2021/07/27 06:44:10;;;;;;;55.22;36.13;;;;;;;17.63;100.00;101060.28;3586478;40;20064;-64
2021/07/27 06:46:37;;;;;;;61.25;37.90;;;;;;;17.69;100.00;101058.72;3581244;40;20075;-63
2021/07/27 06:49:04;;;;;;;57.63;36.45;;;;;;;17.72;100.00;101052.91;3586399;40;20033;-66
2021/07/27 06:51:31;;;;;;;52.78;35.45;;;;;;;17.64;100.00;101059.25;3587047;40;20052;-63
2021/07/27 06:53:57;;;;;;;52.17;34.72;;;;;;;17.56;100.00;101066.63;3585727;40;20407;-64
2021/07/27 06:56:23;;;;;;;52.10;34.53;;;;;;;17.68;100.00;101066.06;3586035;40;20049;-65
2021/07/27 06:58:50;;;;;;;46.90;32.17;;;;;;;17.75;100.00;101068.91;3586885;40;20045;-63
2021/07/27 07:01:16;;;;;;;43.83;31.50;;;;;;;17.67;100.00;101074.41;3588962;40;20048;-66
2021/07/27 07:03:44;;;;;;;43.67;31.70;;;;;;;17.45;100.00;101074.16;3585308;40;20394;-66
2021/07/27 07:06:13;;;;;;;50.45;32.63;;;;;;;17.44;100.00;101072.44;3585288;40;20331;-63
2021/07/27 07:08:40;;;;;;;46.92;30.75;;;;;;;17.56;100.00;101074.78;3585091;40;20041;-66
2021/07/27 07:11:06;;;;;;;47.33;31.83;;;;;;;17.62;100.00;101071.34;3583806;40;20035;-65
2021/07/27 07:13:34;;;;;;;51.95;30.85;;;;;;;17.44;100.00;101086.03;3588429;40;20041;-65
2021/07/27 07:16:03;;;;;;;45.55;31.15;;;;;;;17.42;100.00;101079.94;3586175;40;20033;-63
2021/07/27 07:18:30;;;;;;;46.55;31.83;;;;;;;17.44;100.00;101083.31;3578929;40;20053;-64
2021/07/27 07:20:57;;;;;;;50.20;32.03;;;;;;;17.33;100.00;101091.88;3585968;40;20033;-65
2021/07/27 07:23:24;;;;;;;49.95;34.42;;;;;;;17.20;100.00;101091.59;3586559;40;20046;-67
2021/07/27 07:25:51;;;;;;;48.13;33.05;;;;;;;17.06;100.00;101102.13;3586350;40;20064;-66
2021/07/27 07:28:19;;;;;;;48.30;33.50;;;;;;;17.16;100.00;101097.34;3585879;40;20473;-64
2021/07/27 07:30:46;;;;;;;52.50;34.63;;;;;;;17.16;100.00;101108.22;3585715;40;20367;-63
2021/07/27 07:33:12;;;;;;;50.78;33.53;;;;;;;17.22;100.00;101101.25;3585627;40;20044;-62
2021/07/27 07:35:39;;;;;;;56.05;35.83;;;;;;;17.12;100.00;101106.91;3585177;40;20039;-63
2021/07/27 07:38:07;;;;;;;55.65;35.30;;;;;;;17.27;100.00;101108.88;3586478;40;20040;-64
2021/07/27 07:40:33;;;;;;;47.50;32.80;;;;;;;17.44;100.00;101099.66;3585943;40;20383;-63
2021/07/27 07:43:00;;;;;;;51.13;33.25;;;;;;;17.53;100.00;101100.47;3586598;40;20403;-64
2021/07/27 07:45:28;;;;;;;45.05;31.20;;;;;;;17.31;100.00;101099.34;3586664;40;20061;-67
2021/07/27 07:47:55;;;;;;;49.63;32.42;;;;;;;17.52;100.00;101099.63;3588877;40;20029;-66
2021/07/27 07:50:23;;;;;;;50.92;33.97;;;;;;;17.65;100.00;101092.75;3585462;40;23520;-64
2021/07/27 07:52:57;;;;;;;44.65;31.52;;;;;;;17.73;100.00;101090.03;3586344;40;20045;-63
2021/07/27 07:55:25;;;;;;;46.95;33.28;;;;;;;17.88;100.00;101087.38;3588725;40;20031;-64
2021/07/27 07:57:51;;;;;;;44.63;30.15;;;;;;;18.07;100.00;101085.28;3588207;40;20382;-63
2021/07/27 08:00:19;;;;;;;41.65;29.48;;;;;;;18.28;100.00;101079.16;3587789;40;20310;-64
2021/07/27 08:02:45;;;;;;;44.22;30.75;;;;;;;18.18;100.00;101082.97;3588294;40;20028;-66
2021/07/27 08:05:12;;;;;;;43.63;30.02;;;;;;;18.21;100.00;101081.75;3587283;40;20039;-64
2021/07/27 08:07:39;;;;;;;42.40;30.60;;;;;;;18.12;100.00;101086.41;3590019;40;20041;-66
2021/07/27 08:10:06;;;;;;;43.22;31.27;;;;;;;18.08;100.00;101085.09;3587546;40;20063;-63
2021/07/27 08:12:34;;;;;;;44.30;30.52;;;;;;;18.05;100.00;101088.19;3588363;40;20036;-63
2021/07/27 08:15:00;;;;;;;40.35;29.20;;;;;;;18.15;100.00;101083.34;3588343;40;20048;-63
2021/07/27 08:17:26;;;;;;;47.30;31.27;;;;;;;18.14;100.00;101091.69;3588428;40;20306;-63
2021/07/27 08:19:53;;;;;;;44.30;29.67;;;;;;;17.96;100.00;101086.50;3587634;40;20068;-66
2021/07/27 08:22:19;;;;;;;43.20;32.10;;;;;;;18.10;100.00;101082.19;3588103;40;20033;-63
2021/07/27 08:24:46;;;;;;;43.17;29.83;;;;;;;18.32;100.00;101084.06;3588165;40;20039;-64
2021/07/27 08:27:12;;;;;;;44.05;31.40;;;;;;;18.33;100.00;101082.16;3588499;40;20063;-63
2021/07/27 08:29:40;;;;;;;41.10;28.92;;;;;;;18.24;100.00;101077.81;3587346;40;20029;-67
2021/07/27 08:32:08;;;;;;;45.65;29.58;;;;;;;18.26;100.00;101083.97;3587874;40;20468;-64
2021/07/27 08:34:36;;;;;;;43.17;29.95;;;;;;;18.13;100.00;101081.81;3587890;40;20033;-62
2021/07/27 08:37:02;;;;;;;44.90;30.55;;;;;;;18.17;100.00;101081.28;3588203;40;20041;-64
2021/07/27 08:39:29;;;;;;;40.03;29.38;;;;;;;18.30;100.00;101074.38;3588282;40;20046;-63
2021/07/27 08:41:58;;;;;;;46.70;30.55;;;;;;;18.51;100.00;101070.97;3588660;40;20077;-63
2021/07/27 08:44:24;;;;;;;42.95;29.10;;;;;;;18.67;100.00;101072.72;3587797;40;20058;-65
2021/07/27 08:46:52;;;;;;;43.17;29.67;;;;;;;18.70;100.00;101077.81;3587774;40;20029;-63
2021/07/27 08:49:19;;;;;;;40.22;29.17;;;;;;;18.84;100.00;101063.31;3587780;40;20039;-63
2021/07/27 08:51:46;;;;;;;41.40;29.98;;;;;;;18.83;100.00;101067.09;3588198;40;20136;-64
2021/07/27 08:54:15;;;;;;;37.47;28.30;;;;;;;18.81;100.00;101066.44;3587757;40;20358;-62
2021/07/27 08:56:45;;;;;;;40.92;29.10;;;;;;;19.06;100.00;101060.75;3588642;40;20102;-63
2021/07/27 08:59:12;;;;;;;42.17;29.02;;;;;;;19.03;100.00;101056.53;3588328;40;20041;-63
2021/07/27 09:01:39;;;;;;;40.75;29.00;;;;;;;19.36;100.00;101061.63;3587796;40;20040;-65
2021/07/27 09:04:06;;;;;;;40.78;27.98;;;;;;;19.13;100.00;101061.72;3587527;40;20053;-63
2021/07/27 09:06:33;;;;;;;41.63;29.40;;;;;;;18.77;100.00;101065.13;3588145;40;20299;-65
2021/07/27 09:09:06;;;;;;;41.13;30.30;;;;;;;19.08;100.00;101075.91;3586777;40;20372;-62
2021/07/27 09:11:34;;;;;;;41.95;30.50;;;;;;;18.85;100.00;101075.09;3588604;40;20100;-62
2021/07/27 09:14:00;;;;;;;42.60;30.95;;;;;;;18.79;100.00;101071.22;3588069;40;20056;-62
2021/07/27 09:16:26;;;;;;;44.10;29.48;;;;;;;18.90;100.00;101072.69;3587509;40;20401;-64
2021/07/27 09:19:00;;;;;;;37.58;28.35;;;;;;;19.05;100.00;101070.84;3587848;40;20037;-62
2021/07/27 09:21:28;;;;;;;40.75;28.15;;;;;;;18.89;100.00;101071.00;3587792;40;20037;-62
2021/07/27 09:23:55;;;;;;;37.75;30.02;;;;;;;18.98;100.00;101071.78;3587534;40;20036;-64
2021/07/27 09:26:21;;;;;;;34.95;28.08;;;;;;;19.36;100.00;101068.94;3587788;40;20048;-62
2021/07/27 09:28:49;;;;;;;37.72;28.92;;;;;;;20.03;100.00;101069.81;3586862;40;20376;-62
2021/07/27 09:31:15;;;;;;;38.58;27.75;;;;;;;20.36;100.00;101066.56;3589003;40;20044;-65
2021/07/27 09:33:42;;;;;;;36.90;28.83;;;;;;;20.72;100.00;101060.19;3587791;40;20032;-62
2021/07/27 09:36:09;;;;;;;36.92;27.48;;;;;;;20.96;100.00;101058.88;3587131;40;20037;-64
2021/07/27 09:38:38;;;;;;;37.08;27.40;;;;;;;20.35;100.00;101053.94;3587844;40;20090;-62
2021/07/27 09:41:07;;;;;;;35.28;27.05;;;;;;;19.89;100.00;101060.59;3588655;40;20029;-63
2021/07/27 09:43:34;;;;;;;38.60;28.88;;;;;;;19.80;100.00;101065.31;3587644;39;20084;-64
2021/07/27 09:46:01;;;;;;;38.15;30.13;;;;;;;19.58;100.00;101065.25;3587236;40;20047;-63
2021/07/27 09:48:29;;;;;;;34.42;27.25;;;;;;;19.65;100.00;101069.97;3589582;40;20044;-62
2021/07/27 09:50:56;;;;;;;36.30;29.15;;;;;;;19.94;100.00;101064.44;3577361;40;20065;-63
2021/07/27 09:53:24;;;;;;;35.50;27.95;;;;;;;20.10;100.00;101063.38;3583831;40;20041;-62
2021/07/27 09:55:52;;;;;;;35.72;28.70;;;;;;;20.00;100.00;101056.53;3589721;40;20036;-62
2021/07/27 09:58:19;;;;;;;37.13;28.75;;;;;;;20.15;100.00;101060.03;3587448;40;20036;-62
2021/07/27 10:00:52;;;;;;;35.50;28.67;;;;;;;20.23;100.00;101057.19;3585840;40;20295;-62
2021/07/27 10:03:23;;;;;;;40.15;29.48;;;;;;;20.08;100.00;101061.84;3589371;40;20039;-63
2021/07/27 10:05:54;;;;;;;38.35;28.35;;;;;;;20.02;100.00;101059.91;3587694;40;20158;-61
2021/07/27 10:08:27;;;;;;;36.33;29.38;;;;;;;19.61;100.00;101070.34;3586536;40;20029;-63
2021/07/27 10:11:06;;;;;;;38.97;29.88;;;;;;;19.42;100.00;101068.22;3590114;40;20050;-63
2021/07/27 10:13:34;;;;;;;41.88;30.90;;;;;;;19.40;100.00;101067.53;3587989;40;20024;-62
2021/07/27 10:16:01;;;;;;;33.38;28.02;;;;;;;19.50;100.00;101073.56;3587479;40;20076;-62
2021/07/27 10:18:32;;;;;;;34.70;26.55;;;;;;;19.74;100.00;101075.13;3587157;40;20055;-62
2021/07/27 10:21:17;;;;;;;36.80;27.38;;;;;;;19.73;100.00;101078.06;3585626;40;20037;-62
2021/07/27 10:23:44;;;;;;;35.75;28.45;;;;;;;19.72;100.00;101082.66;3583832;40;20037;-63
2021/07/27 10:26:11;;;;;;;38.05;28.25;;;;;;;19.93;100.00;101079.16;3586144;40;20068;-63
2021/07/27 10:28:38;;;;;;;35.78;27.15;;;;;;;20.57;100.00;101068.44;3585003;40;20052;-62
2021/07/27 10:31:07;;;;;;;34.13;24.83;;;;;;;21.21;100.00;101072.91;3586626;40;20028;-62
2021/07/27 10:33:33;;;;;;;;;;;;;;;21.51;100.00;101072.72;3587990;40;20114;-63
2021/07/27 10:36:00;;;;;;;33.88;25.83;;;;;;;21.15;100.00;101071.00;3585540;40;19993;-61
2021/07/27 10:38:38;;;;;;;31.73;24.30;;;;;;;21.08;100.00;101067.38;3585529;40;20052;-61
2021/07/27 10:41:20;;;;;;;34.53;25.25;;;;;;;21.32;100.00;101061.41;3585184;40;20324;-61
2021/07/27 10:43:47;;;;;;;35.47;24.95;;;;;;;21.81;100.00;101059.53;3585698;40;20101;-61
2021/07/27 10:46:14;;;;;;;33.35;24.42;;;;;;;21.64;100.00;101056.34;3583403;40;20336;-61
2021/07/27 10:48:41;;;;;;;33.92;23.40;;;;;;;21.98;100.00;101050.94;3584942;40;20043;-62
2021/07/27 10:51:09;;;;;;;31.23;23.08;;;;;;;21.77;100.00;101068.38;3583242;40;20630;-61
2021/07/27 10:53:36;;;;;;;31.58;25.65;;;;;;;20.54;100.00;101063.34;3581253;40;20036;-61
2021/07/27 10:56:05;;;;;;;33.22;25.48;;;;;;;20.38;100.00;101065.31;3586197;40;20068;-61
2021/07/27 10:58:35;;;;;;;35.13;25.92;;;;;;;20.66;100.00;101061.81;3588590;40;20063;-61
2021/07/27 11:01:08;;;;;;;32.17;26.27;;;;;;;20.98;100.00;101059.53;3587352;40;20044;-64
2021/07/27 11:03:35;;;;;;;34.42;26.42;;;;;;;20.56;100.00;101056.63;3586432;40;20021;-62
2021/07/27 11:06:02;;;;;;;32.38;25.83;;;;;;;20.62;100.00;101066.78;3586293;40;20069;-62
2021/07/27 11:08:28;;;;;;;32.58;25.80;;;;;;;20.68;100.00;101064.34;3586195;40;20052;-63
2021/07/27 11:11:06;;;;;;;37.10;28.23;;;;;;;20.67;100.00;101063.50;3587951;40;20045;-61
2021/07/27 11:13:34;;;;;;;34.45;27.88;;;;;;;20.49;100.00;101061.19;3585969;40;20049;-62
2021/07/27 11:16:01;;;;;;;34.47;26.35;;;;;;;20.57;100.00;101062.97;3586871;40;20343;-63
2021/07/27 11:18:29;;;;;;;40.80;27.63;;;;;;;20.89;100.00;101061.56;3587390;40;20088;-62
2021/07/27 11:20:57;;;;;;;38.95;28.35;;;;;;;20.79;100.00;101061.06;3587418;40;20032;-62
2021/07/27 11:23:26;;;;;;;35.85;27.98;;;;;;;20.33;100.00;101067.78;3583420;40;20434;-63